createdAt,value
2018-09-01T00:00:01.179Z,15.3
2018-09-01T00:05:02.592Z,15.3
2018-09-01T00:10:02.053Z,15.3
2018-09-01T00:15:01.501Z,15.3
2018-09-01T00:20:02.125Z,15.3
2018-09-01T00:25:01.962Z,15.3
2018-09-01T00:30:01.637Z,15.3
2018-09-01T00:35:01.638Z,15.4
2018-09-01T00:40:02.303Z,15.3
2018-09-01T00:45:01.189Z,15.3
2018-09-01T00:50:01.393Z,15.3
2018-09-01T00:55:01.812Z,15.3
2018-09-01T01:00:01.915Z,15.3
2018-09-01T01:05:01.351Z,15.2
2018-09-01T01:10:01.255Z,15.2
2018-09-01T01:15:02.246Z,15.2
2018-09-01T01:20:01.145Z,15.3
2018-09-01T01:25:01.231Z,15.3
2018-09-01T01:30:02.043Z,15.3
2018-09-01T01:35:02.250Z,15.3
2018-09-01T01:40:01.977Z,15.3
2018-09-01T01:45:01.941Z,15.2
2018-09-01T01:50:01.938Z,15.2
2018-09-01T01:55:01.734Z,15.2
2018-09-01T02:00:01.598Z,15.1
2018-09-01T02:05:01.200Z,15.2
2018-09-01T02:10:02.255Z,15.2
2018-09-01T02:15:02.118Z,15.2
2018-09-01T02:20:01.378Z,15.2
2018-09-01T02:25:01.739Z,15.2
2018-09-01T02:30:02.250Z,15.1
2018-09-01T02:35:01.589Z,15
2018-09-01T02:40:01.711Z,15
2018-09-01T02:45:02.506Z,15
2018-09-01T02:50:01.218Z,14.9
2018-09-01T02:55:01.439Z,14.8
2018-09-01T03:00:01.749Z,14.7
2018-09-01T03:05:02.181Z,14.7
2018-09-01T03:10:02.149Z,14.7
2018-09-01T03:15:01.702Z,14.6
2018-09-01T03:20:01.995Z,14.4
2018-09-01T03:25:01.796Z,14.3
2018-09-01T03:30:01.883Z,14.4
2018-09-01T03:35:01.220Z,14.3
2018-09-01T03:40:01.650Z,14.3
2018-09-01T03:45:01.756Z,14.2
2018-09-01T03:50:01.799Z,14.1
2018-09-01T03:55:01.530Z,14
2018-09-01T04:00:01.771Z,14
2018-09-01T04:05:02.048Z,14.1
2018-09-01T04:10:02.284Z,14.1
2018-09-01T04:15:01.312Z,14.1
2018-09-01T04:20:01.664Z,14.1
2018-09-01T04:25:01.295Z,14.1
2018-09-01T04:30:02.166Z,14
2018-09-01T04:35:01.341Z,14
2018-09-01T04:40:01.298Z,14
2018-09-01T04:45:01.173Z,14
2018-09-01T04:50:01.371Z,13.9
2018-09-01T04:55:02.092Z,13.7
2018-09-01T05:00:01.325Z,13.7
2018-09-01T05:05:02.280Z,13.7
2018-09-01T05:10:01.528Z,13.7
2018-09-01T05:15:01.341Z,13.8
2018-09-01T05:20:01.427Z,13.8
2018-09-01T05:25:02.228Z,13.9
2018-09-01T05:30:01.476Z,14
2018-09-01T05:35:01.787Z,14.1
2018-09-01T05:40:01.954Z,14.1
2018-09-01T05:45:02.118Z,14.3
2018-09-01T05:50:01.214Z,14.4
2018-09-01T05:55:01.644Z,14.5
2018-09-01T06:00:01.930Z,14.6
2018-09-01T06:05:01.721Z,14.8
2018-09-01T06:10:01.877Z,15
2018-09-01T06:15:02.058Z,15.1
2018-09-01T06:20:02.044Z,15.3
2018-09-01T06:25:01.644Z,15.4
2018-09-01T06:30:01.193Z,15.6
2018-09-01T06:35:01.942Z,15.8
2018-09-01T06:40:02.009Z,16
2018-09-01T06:45:01.891Z,16.2
2018-09-01T06:50:01.239Z,16.8
2018-09-01T06:55:01.619Z,17.1
2018-09-01T07:00:01.841Z,17.4
2018-09-01T07:05:01.579Z,17.8
2018-09-01T07:10:02.315Z,18.1
2018-09-01T07:15:02.011Z,18.3
2018-09-01T07:20:02.141Z,18.7
2018-09-01T07:25:01.237Z,18.9
2018-09-01T07:30:01.692Z,19.2
2018-09-01T07:35:01.267Z,19.5
2018-09-01T07:40:01.342Z,20
2018-09-01T07:45:01.622Z,20.3
2018-09-01T07:50:01.621Z,20.8
2018-09-01T07:55:01.310Z,21.2
2018-09-01T08:00:01.833Z,21.6
2018-09-01T08:05:02.007Z,21.8
2018-09-01T08:10:02.065Z,21.9
2018-09-01T08:15:01.710Z,22.1
2018-09-01T08:20:02.033Z,22.3
2018-09-01T08:25:01.874Z,22.1
2018-09-01T08:30:01.586Z,22
2018-09-01T08:35:01.583Z,21.5
2018-09-01T08:40:01.318Z,21.9
2018-09-01T08:45:01.595Z,22.3
2018-09-01T08:50:02.332Z,22.8
2018-09-01T08:55:01.161Z,23
2018-09-01T09:00:01.355Z,23
2018-09-01T09:05:01.264Z,22.5
2018-09-01T09:10:01.711Z,22.6
2018-09-01T09:15:01.769Z,23
2018-09-01T09:20:01.887Z,22.3
2018-09-01T09:25:01.424Z,22.4
2018-09-01T09:30:01.700Z,22.2
2018-09-01T09:35:01.716Z,21.8
2018-09-01T09:40:02.037Z,21.5
2018-09-01T09:45:01.400Z,21.2
2018-09-01T09:50:01.676Z,21.7
2018-09-01T09:55:01.814Z,22.1
2018-09-01T10:00:01.958Z,23
2018-09-01T10:05:01.677Z,23.4
2018-09-01T10:10:01.740Z,23.9
2018-09-01T10:15:02.122Z,24.5
2018-09-01T10:20:02.046Z,24
2018-09-01T10:25:01.952Z,23.8
2018-09-01T10:30:01.850Z,23.4
2018-09-01T10:35:01.509Z,23.2
2018-09-01T10:40:01.269Z,23.6
2018-09-01T10:45:02.108Z,24.3
2018-09-01T10:50:01.996Z,25
2018-09-01T10:55:01.581Z,24.4
2018-09-01T11:00:01.795Z,24.3
2018-09-01T11:05:01.601Z,24.7
2018-09-01T11:10:01.363Z,25.1
2018-09-01T11:15:01.878Z,25.5
2018-09-01T11:20:01.886Z,25.5
2018-09-01T11:25:01.978Z,25.1
2018-09-01T11:30:01.195Z,24.2
2018-09-01T11:35:01.345Z,24.7
2018-09-01T11:40:01.413Z,25.3
2018-09-01T11:45:01.253Z,25.5
2018-09-01T11:50:01.940Z,25.1
2018-09-01T11:55:01.543Z,25.1
2018-09-01T12:00:01.730Z,25.5
2018-09-01T12:05:02.130Z,25.6
2018-09-01T12:10:02.107Z,25.3
2018-09-01T12:15:01.171Z,25.4
2018-09-01T12:20:01.613Z,25
2018-09-01T12:25:01.809Z,25
2018-09-01T12:30:02.042Z,25.5
2018-09-01T12:35:01.563Z,26.1
2018-09-01T12:40:01.553Z,25.4
2018-09-01T12:45:01.531Z,24.8
2018-09-01T12:50:01.448Z,24.5
2018-09-01T12:55:01.885Z,24.7
2018-09-01T13:05:01.411Z,24.5
2018-09-01T13:10:01.632Z,24.4
2018-09-01T13:15:01.728Z,24
2018-09-01T13:20:01.554Z,23.7
2018-09-01T13:25:01.686Z,23.5
2018-09-01T13:30:01.228Z,24.5
2018-09-01T13:35:01.926Z,25
2018-09-01T13:40:01.934Z,25.4
2018-09-01T13:45:01.742Z,25.9
2018-09-01T13:50:02.069Z,26.3
2018-09-01T13:55:01.152Z,26.3
2018-09-01T14:00:01.839Z,26.5
2018-09-01T14:05:01.734Z,26.7
2018-09-01T14:10:01.662Z,26.3
2018-09-01T14:15:02.456Z,25.8
2018-09-01T14:20:01.532Z,25.4
2018-09-01T14:25:02.127Z,25
2018-09-01T14:30:01.700Z,25.1
2018-09-01T14:35:01.660Z,25
2018-09-01T14:40:01.317Z,24.7
2018-09-01T14:45:01.253Z,24.4
2018-09-01T14:50:02.177Z,24
2018-09-01T14:55:01.786Z,23.8
2018-09-01T15:00:02.090Z,23.8
2018-09-01T15:05:01.322Z,23.8
2018-09-01T15:10:01.554Z,23.3
2018-09-01T15:15:01.977Z,23.3
2018-09-01T15:20:02.078Z,23.3
2018-09-01T15:25:01.962Z,22.4
2018-09-01T15:30:01.639Z,22
2018-09-01T15:35:01.518Z,21.7
2018-09-01T15:40:01.734Z,21.3
2018-09-01T15:45:01.901Z,21.2
2018-09-01T15:50:01.207Z,21.1
2018-09-01T15:55:01.511Z,21
2018-09-01T16:00:01.314Z,20.9
2018-09-01T16:05:01.842Z,20.9
2018-09-01T16:10:02.178Z,21.2
2018-09-01T16:15:01.259Z,21.6
2018-09-01T16:20:01.179Z,21.5
2018-09-01T16:25:01.542Z,21.3
2018-09-01T16:30:02.063Z,21.5
2018-09-01T16:35:01.559Z,21.6
2018-09-01T16:40:01.372Z,21.9
2018-09-01T16:45:01.155Z,21.9
2018-09-01T16:50:01.557Z,21.7
2018-09-01T16:55:02.047Z,21.3
2018-09-01T17:00:01.366Z,21.3
2018-09-01T17:05:02.036Z,20.9
2018-09-01T17:10:01.703Z,20.6
2018-09-01T17:15:01.847Z,20.5
2018-09-01T17:20:01.848Z,20.2
2018-09-01T17:25:01.571Z,19.9
2018-09-01T17:30:01.857Z,19.8
2018-09-01T17:35:01.550Z,19.5
2018-09-01T17:40:01.288Z,19.4
2018-09-01T17:45:02.055Z,19.3
2018-09-01T17:50:01.484Z,19.1
2018-09-01T17:55:01.791Z,19
2018-09-01T18:00:01.164Z,18.9
2018-09-01T18:05:02.126Z,18.8
2018-09-01T18:10:01.958Z,18.6
2018-09-01T18:15:01.630Z,18.5
2018-09-01T18:20:01.758Z,18.3
2018-09-01T18:25:02.665Z,18.1
2018-09-01T18:30:01.303Z,18
2018-09-01T18:35:02.145Z,17.9
2018-09-01T18:40:02.133Z,17.7
2018-09-01T18:45:01.267Z,17.6
2018-09-01T18:50:02.533Z,17.4
2018-09-01T18:55:01.759Z,17.3
2018-09-01T19:00:02.298Z,17.2
2018-09-01T19:05:01.552Z,17.1
2018-09-01T19:10:01.497Z,17
2018-09-01T19:15:01.954Z,16.8
2018-09-01T19:20:02.024Z,16.6
2018-09-01T19:25:01.553Z,16.5
2018-09-01T19:30:01.973Z,16.5
2018-09-01T19:35:01.640Z,16.3
2018-09-01T19:40:01.472Z,16.2
2018-09-01T19:45:02.063Z,16.2
2018-09-01T19:50:02.168Z,16.1
2018-09-01T19:55:01.515Z,16
2018-09-01T20:00:01.765Z,15.7
2018-09-01T20:05:02.434Z,15.5
2018-09-01T20:10:01.656Z,15.5
2018-09-01T20:15:01.898Z,15.4
2018-09-01T20:20:03.000Z,15.4
2018-09-01T20:25:02.283Z,15.4
2018-09-01T20:30:01.856Z,15.2
2018-09-01T20:35:01.955Z,15.1
2018-09-01T20:40:02.195Z,15
2018-09-01T20:45:01.875Z,14.9
2018-09-01T20:50:01.322Z,14.8
2018-09-01T20:55:01.426Z,14.6
2018-09-01T21:00:02.485Z,14.5
2018-09-01T21:05:02.124Z,14.5
2018-09-01T21:10:01.702Z,14.5
2018-09-01T21:15:01.240Z,14.2
2018-09-01T21:20:01.842Z,14.1
2018-09-01T21:25:01.953Z,14
2018-09-01T21:30:01.806Z,13.9
2018-09-01T21:35:02.314Z,13.9
2018-09-01T21:40:01.349Z,13.7
2018-09-01T21:45:01.383Z,13.8
2018-09-01T21:50:01.491Z,13.8
2018-09-01T21:55:01.870Z,13.8
2018-09-01T22:00:01.528Z,13.7
2018-09-01T22:05:02.253Z,13.7
2018-09-01T22:10:02.039Z,13.7
2018-09-01T22:15:01.284Z,13.6
2018-09-01T22:20:01.370Z,13.5
2018-09-01T22:25:02.038Z,13.5
2018-09-01T22:30:01.695Z,13.4
2018-09-01T22:35:02.036Z,13.3
2018-09-01T22:40:01.689Z,13.2
2018-09-01T22:45:01.771Z,13.2
2018-09-01T22:50:01.485Z,13.1
2018-09-01T22:55:02.293Z,13.1
2018-09-01T23:00:01.841Z,13.1
2018-09-01T23:05:02.141Z,13
2018-09-01T23:10:01.940Z,13.1
2018-09-01T23:15:02.365Z,13.1
2018-09-01T23:20:01.801Z,13.2
2018-09-01T23:25:01.161Z,13.2
2018-09-01T23:30:01.992Z,13.2
2018-09-01T23:35:02.129Z,13.2
2018-09-01T23:40:01.935Z,13.2
2018-09-01T23:45:01.462Z,13.2
2018-09-01T23:50:01.506Z,13.1
2018-09-01T23:55:01.949Z,13.1
